Amboy, Illinois
Current Conditions -  °F | °C
As of 12:15 PM on Thursday 30 Oct 2014 (Local Time) from KRPJ Reporting Station
Overcast Overcast  
Wind Chill: 45°   Ceiling: 7000
Heat Index: 47°   Visibility: 10mi
Dew Point: 36°   Wind: 6mph
Humidity: 63%   Direction: 220°SW
Pressure: 30.11"   Gusts: NA
Location:  41.71°N, 89.33°W
Report Text: KRPJ 301715Z AUTO 22005KT 10SM SCT060 OVC070 09/02 A3011 RMK AO2 T00860020
Loading
Personal Weather Stations






























Interactive Weather Map
Tropical Storm Tracking
New forecast layout! Learn more

10-Day Weather Forecast

Advertisements
Track Severe Weather on mobile